Time;durP1;ratioP1;P1;durP2;ratioP2;P2;SDS_P1;SDS_P2;PMS_P1;PMS_P2;Temp;Humidity;BMP_temperature;BMP_pressure;BME280_temperature;BME280_humidity;BME280_pressure;Samples;Min_cycle;Max_cycle;Signal;HPM_P1;HPM_P2
2022/07/16 00:02:41;;;;;;;0.73;0.50;;;17.50;59.50;;;;;;5054033;28;20044;-81
2022/07/16 00:05:11;;;;;;;0.90;0.30;;;17.50;59.70;;;;;;5055280;28;20077;-81
2022/07/16 00:07:39;;;;;;;2.50;0.32;;;17.50;59.70;;;;;;5045051;28;20057;-81
2022/07/16 00:10:07;;;;;;;1.90;0.40;;;17.50;59.70;;;;;;5021519;28;20045;-81
2022/07/16 00:12:34;;;;;;;0.63;0.22;;;17.60;59.80;;;;;;5045951;28;20055;-81
2022/07/16 00:15:03;;;;;;;0.75;0.30;;;17.60;59.70;;;;;;5041950;28;20064;-81
2022/07/16 00:17:30;;;;;;;1.98;0.43;;;17.70;59.70;;;;;;5044010;28;20048;-80
2022/07/16 00:19:57;;;;;;;0.88;0.30;;;17.70;59.70;;;;;;5025881;28;20048;-81
2022/07/16 00:22:24;;;;;;;0.98;0.38;;;17.70;59.70;;;;;;5053568;28;20055;-81
2022/07/16 00:24:51;;;;;;;1.00;0.35;;;17.80;59.80;;;;;;5039252;28;20071;-78
2022/07/16 00:27:18;;;;;;;1.98;0.40;;;17.80;59.80;;;;;;5052977;28;20036;-79
2022/07/16 00:29:45;;;;;;;0.85;0.30;;;17.80;59.90;;;;;;5048458;28;20467;-79
2022/07/16 00:32:12;;;;;;;0.47;0.30;;;17.80;59.90;;;;;;5036070;28;20053;-80
2022/07/16 00:34:40;;;;;;;0.70;0.30;;;17.80;60.00;;;;;;5039468;28;20048;-79
2022/07/16 00:37:07;;;;;;;1.40;0.55;;;17.90;60.00;;;;;;5041040;28;20107;-80
2022/07/16 00:39:34;;;;;;;1.05;0.50;;;17.90;60.00;;;;;;5020987;28;20040;-79
2022/07/16 00:42:01;;;;;;;0.98;0.40;;;17.90;60.00;;;;;;5066711;28;20040;-79
2022/07/16 00:44:28;;;;;;;1.27;0.50;;;18.00;60.30;;;;;;5028801;28;20045;-80
2022/07/16 00:46:55;;;;;;;1.30;0.40;;;18.00;60.30;;;;;;5030857;28;20091;-79
2022/07/16 00:49:22;;;;;;;1.48;0.50;;;18.00;60.30;;;;;;5048430;28;20052;-79
2022/07/16 00:51:51;;;;;;;1.42;0.63;;;18.00;60.40;;;;;;5075939;28;20040;-79
2022/07/16 00:54:19;;;;;;;2.85;0.60;;;18.00;60.50;;;;;;5063776;28;20049;-79
2022/07/16 00:56:47;;;;;;;2.13;0.50;;;18.00;60.60;;;;;;5054820;28;20040;-80
2022/07/16 00:59:18;;;;;;;1.50;0.50;;;18.00;60.70;;;;;;5038192;28;20173;-79
2022/07/16 01:01:45;;;;;;;2.00;0.50;;;18.00;60.80;;;;;;5021556;28;20041;-79
2022/07/16 01:04:15;;;;;;;1.95;0.50;;;18.00;61.00;;;;;;5037786;28;20048;-79
2022/07/16 01:06:45;;;;;;;1.73;0.40;;;18.00;61.10;;;;;;5054725;28;20136;-79
2022/07/16 01:09:14;;;;;;;1.50;0.60;;;17.90;61.10;;;;;;5055552;28;20047;-79
2022/07/16 01:11:44;;;;;;;2.05;0.80;;;17.90;61.30;;;;;;5050678;28;20048;-79
2022/07/16 01:14:12;;;;;;;1.65;0.60;;;17.90;61.60;;;;;;5066090;28;20044;-79
2022/07/16 01:16:39;;;;;;;1.75;0.50;;;17.80;61.60;;;;;;5058763;28;20048;-80
2022/07/16 01:19:08;;;;;;;2.03;0.80;;;17.80;61.90;;;;;;5044541;28;20117;-79
2022/07/16 01:21:38;;;;;;;2.45;0.80;;;17.70;62.10;;;;;;5071011;28;20048;-79
2022/07/16 01:24:06;;;;;;;2.63;0.50;;;17.70;62.10;;;;;;5053472;28;20132;-79
2022/07/16 01:26:33;;;;;;;1.48;0.60;;;17.70;62.90;;;;;;5056474;28;20049;-79
2022/07/16 01:29:00;;;;;;;1.55;0.68;;;17.70;62.30;;;;;;5038395;28;20080;-79
2022/07/16 01:31:27;;;;;;;1.58;0.60;;;17.70;62.50;;;;;;5046060;28;20152;-79
2022/07/16 01:36:58;;;;;;;1.35;0.47;;;17.70;62.50;;;;;;5027184;28;20052;-79
2022/07/16 01:39:26;;;;;;;2.15;0.80;;;17.80;63.20;;;;;;5055354;28;20056;-79
2022/07/16 01:41:56;;;;;;;2.25;0.60;;;17.80;62.60;;;;;;5034887;28;20064;-79
2022/07/16 01:44:24;;;;;;;2.50;0.75;;;17.80;62.60;;;;;;5041136;28;20116;-79
2022/07/16 01:46:53;;;;;;;1.85;0.60;;;17.80;62.80;;;;;;5062952;28;20037;-79
2022/07/16 01:49:20;;;;;;;1.40;0.47;;;17.80;62.70;;;;;;5040910;28;20044;-79
2022/07/16 01:51:48;;;;;;;1.08;0.50;;;17.90;62.80;;;;;;5034304;28;20044;-79
2022/07/16 01:54:16;;;;;;;1.52;0.60;;;17.90;62.90;;;;;;5025335;28;20059;-79
2022/07/16 01:56:45;;;;;;;1.52;0.70;;;17.90;62.90;;;;;;5037316;28;20045;-79
2022/07/16 01:59:12;;;;;;;0.70;0.38;;;17.90;62.90;;;;;;5034850;28;20063;-79
2022/07/16 02:01:42;;;;;;;1.83;0.70;;;18.00;63.00;;;;;;5034305;28;20053;-79
2022/07/16 02:04:09;;;;;;;1.20;0.50;;;18.00;63.20;;;;;;5046665;28;20076;-79
2022/07/16 02:06:37;;;;;;;1.65;0.65;;;18.00;63.30;;;;;;5061469;28;20052;-78
2022/07/16 02:09:04;;;;;;;1.42;0.57;;;18.00;64.00;;;;;;5021738;28;20055;-79
2022/07/16 02:11:31;;;;;;;1.58;0.70;;;18.00;63.30;;;;;;5072748;28;20385;-80
2022/07/16 02:13:58;;;;;;;1.83;0.50;;;18.00;63.40;;;;;;5037773;28;20045;-79
2022/07/16 02:16:25;;;;;;;2.25;0.70;;;18.00;63.50;;;;;;5037927;28;20049;-79
2022/07/16 02:18:52;;;;;;;2.95;0.70;;;18.00;63.80;;;;;;5037324;28;20071;-78
2022/07/16 02:21:19;;;;;;;2.28;0.65;;;18.00;64.00;;;;;;5038056;28;20467;-79
2022/07/16 02:23:46;;;;;;;1.08;0.50;;;18.00;64.00;;;;;;5071944;28;20051;-78
2022/07/16 02:26:13;;;;;;;2.13;0.70;;;18.00;64.70;;;;;;5051055;28;20068;-79
2022/07/16 02:28:40;;;;;;;2.25;0.50;;;18.00;64.10;;;;;;5021697;28;20049;-79
2022/07/16 02:31:07;;;;;;;1.85;0.50;;;18.00;64.20;;;;;;5037914;28;20131;-78
2022/07/16 02:33:34;;;;;;;1.67;0.70;;;18.00;64.20;;;;;;5038857;28;20048;-78
2022/07/16 02:36:02;;;;;;;1.30;0.52;;;18.00;64.20;;;;;;5039299;28;20102;-79
2022/07/16 02:38:29;;;;;;;1.33;0.43;;;18.10;64.30;;;;;;5013014;28;20041;-78
2022/07/16 02:40:56;;;;;;;2.33;0.73;;;18.10;64.30;;;;;;5040623;28;20051;-78
2022/07/16 02:43:23;;;;;;;1.92;0.50;;;18.10;64.50;;;;;;5047396;28;20113;-78
2022/07/16 02:45:50;;;;;;;1.73;0.60;;;18.10;64.60;;;;;;5027947;28;20041;-79
2022/07/16 02:48:17;;;;;;;2.08;0.73;;;18.10;64.80;;;;;;5041296;28;20045;-78
2022/07/16 02:50:44;;;;;;;1.95;0.50;;;18.10;64.80;;;;;;5052221;28;20129;-79
2022/07/16 02:53:11;;;;;;;4.55;0.60;;;18.00;65.40;;;;;;5057086;28;20044;-79
2022/07/16 02:55:38;;;;;;;1.88;0.68;;;18.10;65.00;;;;;;5041921;28;20103;-79
2022/07/16 02:58:05;;;;;;;1.60;0.57;;;18.00;65.10;;;;;;5042085;28;20551;-78
2022/07/16 03:00:32;;;;;;;2.35;0.70;;;18.00;65.20;;;;;;5039046;28;20095;-79
2022/07/16 03:02:59;;;;;;;1.10;0.50;;;18.00;65.50;;;;;;5056649;28;20136;-78
2022/07/16 03:05:27;;;;;;;2.97;0.50;;;17.90;65.60;;;;;;5038046;28;20448;-79
2022/07/16 03:07:55;;;;;;;1.50;0.60;;;17.90;65.70;;;;;;5007802;28;20041;-78
2022/07/16 03:10:22;;;;;;;2.03;0.50;;;17.90;65.90;;;;;;5055178;28;20412;-79
2022/07/16 03:12:49;;;;;;;2.78;0.85;;;17.90;65.90;;;;;;5038108;28;20049;-79
2022/07/16 03:15:16;;;;;;;1.40;0.50;;;17.90;66.00;;;;;;5026454;28;20044;-79
2022/07/16 03:17:46;;;;;;;0.80;0.45;;;17.90;66.10;;;;;;5051513;28;20052;-79
2022/07/16 03:20:16;;;;;;;1.75;0.60;;;17.90;66.30;;;;;;5040712;28;20072;-79
2022/07/16 03:22:46;;;;;;;1.42;0.50;;;17.80;66.40;;;;;;5041239;28;20040;-79
2022/07/16 03:25:14;;;;;;;1.80;0.60;;;17.80;66.60;;;;;;5039011;28;20048;-79
2022/07/16 03:27:41;;;;;;;1.30;0.47;;;17.80;66.60;;;;;;5053795;28;20488;-79
2022/07/16 03:30:10;;;;;;;1.20;0.47;;;17.80;66.60;;;;;;5015797;28;20041;-79
2022/07/16 03:32:37;;;;;;;1.88;0.70;;;17.80;66.60;;;;;;5040373;28;20044;-79
2022/07/16 03:35:09;;;;;;;1.92;0.88;;;17.80;66.90;;;;;;5056915;28;20458;-78
2022/07/16 03:38:57;;;;;;;2.10;0.75;;;17.80;66.90;;;;;;5054223;28;20045;-79
2022/07/16 03:40:25;;;;;;;1.10;0.55;;;17.80;67.00;;;;;;5038564;28;20045;-79
2022/07/16 03:42:52;;;;;;;1.83;0.57;;;17.80;67.00;;;;;;5054939;28;20041;-79
2022/07/16 03:45:20;;;;;;;2.28;0.80;;;17.80;67.00;;;;;;5023199;28;20553;-78
2022/07/16 03:47:47;;;;;;;2.90;1.08;;;17.80;67.30;;;;;;5052285;28;20091;-79
2022/07/16 03:50:14;;;;;;;2.58;0.80;;;17.80;67.50;;;;;;5052244;28;20483;-79
2022/07/16 03:52:44;;;;;;;2.70;1.10;;;17.80;67.70;;;;;;5058938;28;20063;-79
2022/07/16 03:55:12;;;;;;;1.38;0.75;;;17.80;67.80;;;;;;5057143;28;20492;-78
2022/07/16 03:57:39;;;;;;;3.15;0.90;;;17.80;67.80;;;;;;5055681;28;20041;-79
2022/07/16 04:00:08;;;;;;;3.72;1.00;;;17.80;68.00;;;;;;5053298;28;20041;-79
2022/07/16 04:02:35;;;;;;;2.30;0.93;;;17.80;68.20;;;;;;5039946;28;20040;-79
2022/07/16 04:05:03;;;;;;;1.63;0.73;;;17.70;68.40;;;;;;5040184;28;20040;-79
2022/07/16 04:07:30;;;;;;;1.92;0.80;;;17.70;68.50;;;;;;5052926;28;20075;-79
2022/07/16 04:09:57;;;;;;;3.35;1.05;;;17.70;68.50;;;;;;5052082;28;20060;-79
2022/07/16 04:12:24;;;;;;;1.83;0.70;;;17.70;68.80;;;;;;5043148;28;20049;-79
2022/07/16 04:14:53;;;;;;;2.55;1.10;;;17.60;69.00;;;;;;5074101;28;20090;-78
2022/07/16 04:17:23;;;;;;;2.47;0.98;;;17.60;69.30;;;;;;5053084;28;20041;-79
2022/07/16 04:19:50;;;;;;;2.70;1.58;;;17.60;69.60;;;;;;5019982;28;20055;-80
2022/07/16 04:22:17;;;;;;;4.03;1.73;;;17.60;70.10;;;;;;5006618;28;20048;-78
2022/07/16 04:24:44;;;;;;;1.77;0.82;;;17.60;70.00;;;;;;5040494;28;20090;-78
2022/07/16 04:27:12;;;;;;;2.53;0.90;;;17.60;70.00;;;;;;5035854;28;20045;-79
2022/07/16 04:29:40;;;;;;;2.75;0.90;;;17.60;69.80;;;;;;5064745;28;20051;-80
2022/07/16 04:32:07;;;;;;;1.20;0.60;;;17.70;70.10;;;;;;5026367;28;20052;-79
2022/07/16 04:34:34;;;;;;;1.75;0.70;;;17.60;70.70;;;;;;5055443;28;20048;-79
2022/07/16 04:37:01;;;;;;;1.80;0.60;;;17.40;71.00;;;;;;5023213;28;20052;-80
2022/07/16 04:39:28;;;;;;;1.45;0.63;;;17.40;71.30;;;;;;5038989;28;20051;-80
2022/07/16 04:41:55;;;;;;;1.85;0.82;;;17.30;72.10;;;;;;5022871;28;20049;-80
2022/07/16 04:44:22;;;;;;;2.25;0.70;;;17.30;72.70;;;;;;5022535;28;20048;-79
2022/07/16 04:46:50;;;;;;;2.55;0.70;;;17.30;72.80;;;;;;5047827;28;20055;-80
2022/07/16 04:49:17;;;;;;;1.48;0.70;;;17.20;73.10;;;;;;5022120;28;20400;-80
2022/07/16 04:51:44;;;;;;;1.77;0.60;;;17.20;73.30;;;;;;5061620;28;20099;-80
2022/07/16 04:54:11;;;;;;;1.25;0.60;;;17.30;73.40;;;;;;5036263;28;20507;-80
2022/07/16 04:56:38;;;;;;;3.70;0.80;;;17.20;73.30;;;;;;5059616;28;20152;-80
2022/07/16 04:59:05;;;;;;;1.27;0.70;;;17.20;73.90;;;;;;5018935;28;20045;-79
2022/07/16 05:01:32;;;;;;;2.70;0.70;;;17.20;74.00;;;;;;5037828;28;20111;-79
2022/07/16 05:03:59;;;;;;;1.73;0.70;;;17.20;74.10;;;;;;5047254;28;20040;-80
2022/07/16 05:06:27;;;;;;;3.33;0.70;;;17.30;74.10;;;;;;5055518;28;20037;-79
2022/07/16 05:08:56;;;;;;;1.83;0.75;;;17.30;74.20;;;;;;5022157;28;20067;-80
2022/07/16 05:11:26;;;;;;;3.28;0.77;;;17.50;74.10;;;;;;5038587;28;20119;-80
2022/07/16 05:13:54;;;;;;;2.50;0.60;;;17.50;74.30;;;;;;5052141;28;20041;-78
2022/07/16 05:16:22;;;;;;;2.63;0.90;;;17.50;74.30;;;;;;5034646;28;20496;-78
2022/07/16 05:18:50;;;;;;;1.27;0.68;;;17.50;74.50;;;;;;5055261;28;20032;-79
2022/07/16 05:21:18;;;;;;;2.80;0.85;;;17.60;74.60;;;;;;5036520;28;20090;-79
2022/07/16 05:23:47;;;;;;;2.13;0.88;;;17.60;74.80;;;;;;5055103;28;20045;-80
2022/07/16 05:26:15;;;;;;;1.63;0.80;;;17.60;74.70;;;;;;5038607;28;20047;-79
2022/07/16 05:28:42;;;;;;;2.15;0.90;;;17.60;74.80;;;;;;5025476;28;20060;-79
2022/07/16 05:31:09;;;;;;;2.20;0.95;;;17.60;75.00;;;;;;5021781;28;20047;-79
2022/07/16 05:33:36;;;;;;;1.77;0.90;;;17.60;75.20;;;;;;5068484;28;20041;-79
2022/07/16 05:36:06;;;;;;;3.78;1.10;;;17.60;75.30;;;;;;5044137;28;20036;-79
2022/07/16 05:38:33;;;;;;;2.55;0.77;;;17.70;75.30;;;;;;5050003;28;20514;-78
2022/07/16 05:41:00;;;;;;;2.55;1.00;;;17.70;75.80;;;;;;5039201;28;20043;-79
2022/07/16 05:43:28;;;;;;;3.13;1.17;;;17.60;76.60;;;;;;5039057;28;20048;-79
2022/07/16 05:45:55;;;;;;;2.22;0.70;;;17.70;76.00;;;;;;5023631;28;20450;-80
2022/07/16 05:48:22;;;;;;;2.15;1.00;;;17.80;76.20;;;;;;5038241;28;20048;-79
2022/07/16 05:50:49;;;;;;;2.58;0.93;;;17.80;76.40;;;;;;5050474;28;20055;-79
2022/07/16 05:53:16;;;;;;;2.63;0.90;;;17.90;76.20;;;;;;5023760;28;20512;-76
2022/07/16 05:55:46;;;;;;;1.92;0.77;;;18.00;76.30;;;;;;5037770;28;20390;-81
2022/07/16 05:58:13;;;;;;;2.25;1.00;;;18.10;76.10;;;;;;5056526;28;20044;-80
2022/07/16 06:00:40;;;;;;;2.30;0.95;;;18.20;76.50;;;;;;5041262;28;20049;-80
2022/07/16 06:03:07;;;;;;;1.70;0.75;;;18.30;76.20;;;;;;5022716;28;20044;-80
2022/07/16 06:05:35;;;;;;;3.53;1.15;;;18.30;76.20;;;;;;5071790;28;20370;-78
2022/07/16 06:08:02;;;;;;;2.30;0.52;;;18.40;76.10;;;;;;5053533;28;20041;-80
2022/07/16 06:10:29;;;;;;;2.42;0.80;;;18.50;75.70;;;;;;5029068;28;20131;-81
2022/07/16 06:12:57;;;;;;;1.25;0.63;;;18.60;75.70;;;;;;5051552;28;20147;-82
2022/07/16 06:15:24;;;;;;;0.50;0.30;;;18.70;75.60;;;;;;5053497;28;20476;-80
2022/07/16 06:17:51;;;;;;;2.08;0.55;;;18.80;75.20;;;;;;5017744;28;20052;-82
2022/07/16 06:20:19;;;;;;;1.40;0.38;;;18.90;74.90;;;;;;5020723;28;20040;-83
2022/07/16 06:22:46;;;;;;;0.75;0.40;;;19.00;74.60;;;;;;5021055;28;20045;-83
2022/07/16 06:25:13;;;;;;;2.30;0.65;;;19.00;74.40;;;;;;5053952;28;20109;-80
2022/07/16 06:27:44;;;;;;;1.85;0.40;;;19.10;74.40;;;;;;5026106;28;20427;-81
2022/07/16 06:30:13;;;;;;;1.05;0.47;;;19.10;74.30;;;;;;5037762;28;20052;-81
2022/07/16 06:32:41;;;;;;;2.97;0.50;;;19.20;74.10;;;;;;5054299;28;20396;-80
2022/07/16 06:35:08;;;;;;;2.03;0.50;;;19.20;74.10;;;;;;5038021;28;20049;-81
2022/07/16 06:37:36;;;;;;;2.17;0.50;;;19.20;73.90;;;;;;5071193;28;20056;-80
2022/07/16 06:40:03;;;;;;;1.67;0.52;;;19.20;73.80;;;;;;5036562;28;20045;-82
2022/07/16 06:42:30;;;;;;;1.15;0.40;;;19.20;73.60;;;;;;5036517;28;20072;-80
2022/07/16 06:44:57;;;;;;;3.03;0.43;;;19.20;73.20;;;;;;5045179;28;20049;-79
2022/07/16 06:47:24;;;;;;;1.08;0.40;;;19.20;72.90;;;;;;5049120;28;20118;-77
2022/07/16 06:49:52;;;;;;;3.40;0.43;;;19.30;72.60;;;;;;5040372;28;20430;-80
2022/07/16 06:52:20;;;;;;;2.17;0.43;;;19.40;72.20;;;;;;5042427;28;20076;-79
2022/07/16 06:54:47;;;;;;;3.75;0.50;;;19.40;71.80;;;;;;5037479;28;20048;-80
2022/07/16 06:57:14;;;;;;;1.00;0.30;;;19.60;71.40;;;;;;5019044;28;20485;-81
2022/07/16 06:59:41;;;;;;;1.88;0.40;;;19.70;70.80;;;;;;5070652;28;20037;-80
2022/07/16 07:02:08;;;;;;;3.58;0.50;;;19.90;70.30;;;;;;5038428;28;20044;-80
2022/07/16 07:04:35;;;;;;;1.45;0.30;;;20.00;69.70;;;;;;5028182;28;20063;-79
2022/07/16 07:07:03;;;;;;;1.50;0.30;;;20.10;69.30;;;;;;5037329;28;20041;-80
2022/07/16 07:09:30;;;;;;;1.88;0.32;;;20.10;69.20;;;;;;5054345;28;20098;-78
2022/07/16 07:11:57;;;;;;;1.92;0.20;;;20.20;68.90;;;;;;5020481;28;20086;-79
2022/07/16 07:14:27;;;;;;;0.80;0.25;;;20.30;68.40;;;;;;5047003;28;20078;-79
2022/07/16 07:17:00;;;;;;;1.33;0.30;;;20.50;67.50;;;;;;5039229;28;20044;-79
2022/07/16 07:19:27;;;;;;;1.25;0.40;;;20.40;65.90;;;;;;5037327;28;20071;-80
2022/07/16 07:21:59;;;;;;;1.48;0.50;;;20.30;65.70;;;;;;5057588;28;20377;-79
2022/07/16 07:24:26;;;;;;;2.10;0.17;;;20.30;64.30;;;;;;5024107;28;20045;-79
2022/07/16 07:27:11;;;;;;;1.77;0.20;;;20.30;64.70;;;;;;5029422;28;20064;-80
2022/07/16 07:29:39;;;;;;;4.00;0.55;;;20.30;63.60;;;;;;5040436;28;20068;-79
2022/07/16 07:32:07;;;;;;;0.82;0.20;;;20.30;63.40;;;;;;5056393;28;20037;-80
2022/07/16 07:34:34;;;;;;;1.13;0.20;;;20.40;63.30;;;;;;5070974;28;20037;-79
2022/07/16 07:37:01;;;;;;;2.15;0.20;;;20.40;62.70;;;;;;5056558;28;20071;-80
2022/07/16 07:39:28;;;;;;;0.57;0.20;;;20.50;62.60;;;;;;5023302;28;20048;-79
2022/07/16 07:41:56;;;;;;;1.38;0.30;;;20.70;62.00;;;;;;5021334;28;20051;-80
2022/07/16 07:44:23;;;;;;;2.25;0.20;;;20.80;61.40;;;;;;5039305;28;20106;-81
2022/07/16 07:46:53;;;;;;;0.65;0.20;;;20.90;61.60;;;;;;5040071;28;20123;-79
2022/07/16 07:49:21;;;;;;;1.80;0.20;;;21.10;61.20;;;;;;5056029;28;20074;-80
2022/07/16 07:51:48;;;;;;;1.10;0.28;;;21.30;60.90;;;;;;5056751;28;20135;-80
2022/07/16 07:54:15;;;;;;;1.02;0.20;;;21.40;60.50;;;;;;5056815;28;20041;-80
2022/07/16 07:56:42;;;;;;;1.55;0.28;;;21.40;60.10;;;;;;5039446;28;20119;-79
2022/07/16 07:59:09;;;;;;;1.02;0.30;;;21.50;59.80;;;;;;5022622;28;20106;-79
2022/07/16 08:01:36;;;;;;;0.40;0.20;;;21.60;59.40;;;;;;5052625;28;20037;-78
2022/07/16 08:04:04;;;;;;;0.40;0.20;;;21.60;58.80;;;;;;5066306;28;20033;-80
2022/07/16 08:06:32;;;;;;;1.98;0.20;;;21.60;57.50;;;;;;5033310;28;20049;-79
2022/07/16 08:08:59;;;;;;;1.77;0.30;;;21.50;57.90;;;;;;5036656;28;20041;-77
2022/07/16 08:11:32;;;;;;;0.60;0.20;;;21.50;58.00;;;;;;5039002;28;20139;-79
2022/07/16 08:14:00;;;;;;;3.03;0.40;;;21.50;57.20;;;;;;5057228;28;20124;-79
2022/07/16 08:16:47;;;;;;;2.35;0.30;;;21.40;56.60;;;;;;5047151;28;20102;-77
2022/07/16 08:19:14;;;;;;;1.13;0.20;;;21.40;57.40;;;;;;5038965;28;20120;-77
2022/07/16 08:21:41;;;;;;;1.70;0.28;;;21.30;57.00;;;;;;5023519;28;20041;-78
2022/07/16 08:26:53;;;;;;;2.60;0.20;;;21.30;56.90;;;;;;5058736;28;20056;-78
2022/07/16 08:29:20;;;;;;;1.27;0.30;;;21.10;57.10;;;;;;5056690;28;20437;-79
2022/07/16 08:31:48;;;;;;;2.13;0.43;;;21.00;56.80;;;;;;5037163;28;20434;-78
2022/07/16 08:34:15;;;;;;;1.52;0.20;;;21.00;56.70;;;;;;5021948;28;20102;-78
2022/07/16 08:36:43;;;;;;;0.60;0.20;;;20.90;56.70;;;;;;5034966;28;20048;-81
2022/07/16 08:39:15;;;;;;;1.58;0.20;;;20.90;57.00;;;;;;5069288;28;20048;-79
2022/07/16 08:41:44;;;;;;;2.63;0.32;;;21.00;56.60;;;;;;5023916;28;20086;-78
2022/07/16 08:44:12;;;;;;;0.88;0.32;;;21.10;56.10;;;;;;5059641;28;20041;-80
2022/07/16 08:46:40;;;;;;;0.85;0.20;;;21.20;56.20;;;;;;5039226;28;20045;-78
2022/07/16 08:49:08;;;;;;;1.48;0.30;;;21.20;55.60;;;;;;5036025;28;20060;-78
2022/07/16 08:51:37;;;;;;;2.45;0.40;;;21.20;55.20;;;;;;5039089;28;20075;-79
2022/07/16 08:54:18;;;;;;;1.52;0.50;;;21.20;55.30;;;;;;5055768;28;20433;-80
2022/07/16 08:56:45;;;;;;;1.40;0.25;;;21.30;54.50;;;;;;5047391;28;20511;-78
2022/07/16 08:59:15;;;;;;;1.77;0.20;;;21.40;54.00;;;;;;5035719;28;20060;-78
2022/07/16 09:01:43;;;;;;;1.00;0.22;;;21.40;53.60;;;;;;5033436;28;20041;-78
2022/07/16 09:04:10;;;;;;;0.93;0.10;;;21.50;53.40;;;;;;5030691;28;20075;-79
2022/07/16 09:06:38;;;;;;;0.70;0.20;;;21.60;53.20;;;;;;5054883;28;20044;-79
2022/07/16 09:09:05;;;;;;;1.27;0.20;;;21.80;51.60;;;;;;5036253;28;20423;-79
2022/07/16 09:11:34;;;;;;;1.88;0.30;;;21.80;51.90;;;;;;5054532;28;20139;-79
2022/07/16 09:14:15;;;;;;;0.73;0.20;;;21.90;51.70;;;;;;5035578;28;20037;-79
2022/07/16 09:16:45;;;;;;;1.30;0.20;;;22.00;51.50;;;;;;5049603;28;20116;-79
2022/07/16 09:19:27;;;;;;;1.08;0.20;;;22.00;51.00;;;;;;5050951;28;20109;-77
2022/07/16 09:22:00;;;;;;;1.25;0.20;;;22.20;51.00;;;;;;5052966;28;20527;-79
2022/07/16 09:24:41;;;;;;;0.98;0.20;;;22.40;50.40;;;;;;5072804;28;20041;-77
2022/07/16 09:27:14;;;;;;;0.95;0.15;;;22.60;49.50;;;;;;5054771;28;20098;-80
2022/07/16 09:29:52;;;;;;;1.05;0.10;;;22.60;49.60;;;;;;5055249;28;20119;-77
2022/07/16 09:32:45;;;;;;;0.50;0.13;;;22.80;49.60;;;;;;5055311;28;20036;-78
2022/07/16 09:35:15;;;;;;;0.65;0.10;;;22.90;49.40;;;;;;5064482;28;20098;-79
2022/07/16 09:38:00;;;;;;;2.88;0.25;;;22.90;49.20;;;;;;5051005;28;20151;-78
2022/07/16 09:40:34;;;;;;;0.80;0.20;;;22.70;48.90;;;;;;5072219;28;20040;-79
2022/07/16 09:43:15;;;;;;;1.95;0.17;;;22.60;49.10;;;;;;5041462;28;21485;-79
2022/07/16 09:45:48;;;;;;;0.63;0.13;;;22.60;48.60;;;;;;5036525;28;20479;-80
2022/07/16 09:48:35;;;;;;;0.52;0.10;;;22.70;48.90;;;;;;5054681;28;20037;-80
2022/07/16 09:51:23;;;;;;;0.68;0.10;;;22.90;48.70;;;;;;5034745;28;20072;-79
2022/07/16 09:53:51;;;;;;;4.13;0.20;;;23.20;48.40;;;;;;5046308;28;20546;-80
2022/07/16 09:56:27;;;;;;;0.80;0.10;;;23.10;47.60;;;;;;5054787;28;20492;-79
2022/07/16 09:58:56;;;;;;;1.45;0.10;;;22.90;47.40;;;;;;5045499;28;20049;-79
2022/07/16 10:01:32;;;;;;;1.02;0.10;;;22.70;47.80;;;;;;5047033;28;20036;-78
2022/07/16 10:03:59;;;;;;;1.45;0.22;;;22.40;47.40;;;;;;5046301;28;20036;-80
2022/07/16 10:06:27;;;;;;;0.43;0.10;;;22.40;47.50;;;;;;5046250;28;20370;-79
2022/07/16 10:08:54;;;;;;;0.50;0.20;;;22.50;47.50;;;;;;5053984;28;20102;-79
2022/07/16 10:11:22;;;;;;;0.68;0.17;;;22.60;47.50;;;;;;5047553;28;20052;-80
2022/07/16 10:13:51;;;;;;;0.38;0.17;;;22.80;47.30;;;;;;5050312;28;20040;-80
2022/07/16 10:16:45;;;;;;;0.82;0.20;;;23.00;47.10;;;;;;5030438;28;20102;-79
2022/07/16 10:19:22;;;;;;;0.52;0.13;;;23.40;46.70;;;;;;5051180;28;20500;-79
2022/07/16 10:22:16;;;;;;;1.88;0.17;;;23.50;46.70;;;;;;5029921;28;20443;-80
2022/07/16 10:24:55;;;;;;;1.33;0.10;;;23.40;46.70;;;;;;5040381;28;20040;-79
2022/07/16 10:27:30;;;;;;;0.75;0.10;;;23.10;46.90;;;;;;5049258;28;20045;-80
2022/07/16 10:30:11;;;;;;;0.93;0.20;;;22.90;47.00;;;;;;5068233;28;20044;-79
2022/07/16 10:33:10;;;;;;;0.68;0.10;;;23.10;47.20;;;;;;5072582;28;20511;-79
2022/07/16 10:35:45;;;;;;;0.80;0.13;;;23.40;46.70;;;;;;5037564;28;20048;-79
2022/07/16 10:38:25;;;;;;;0.47;0.10;;;23.70;46.60;;;;;;5037845;28;20059;-79
2022/07/16 10:41:15;;;;;;;1.38;0.30;;;23.80;46.50;;;;;;5028482;28;20131;-79
2022/07/16 10:44:09;;;;;;;0.32;0.13;;;23.70;45.80;;;;;;5064559;28;20511;-79
2022/07/16 10:46:52;;;;;;;1.48;0.20;;;23.80;46.50;;;;;;5031726;28;20037;-78
2022/07/16 10:49:19;;;;;;;;;;;23.90;45.40;;;;;;5019765;28;20041;-78
2022/07/16 10:51:56;;;;;;;0.90;0.10;;;23.90;45.30;;;;;;5062500;28;19928;-80
2022/07/16 10:54:30;;;;;;;1.00;0.20;;;23.70;45.70;;;;;;5051547;28;20124;-80
2022/07/16 10:56:58;;;;;;;;;;;23.70;45.80;;;;;;5056825;28;20044;-80
2022/07/16 10:59:28;;;;;;;2.80;0.30;;;23.70;45.70;;;;;;5077778;28;19920;-79
2022/07/16 11:02:00;;;;;;;1.55;0.10;;;23.90;45.10;;;;;;5070055;28;20033;-79
2022/07/16 11:04:48;;;;;;;0.60;0.10;;;23.90;44.50;;;;;;5057254;28;20048;-79
2022/07/16 11:07:18;;;;;;;0.88;0.17;;;24.10;44.70;;;;;;5069898;28;20067;-79
2022/07/16 11:09:48;;;;;;;0.95;0.28;;;24.20;44.60;;;;;;5057246;28;20044;-78
2022/07/16 11:12:23;;;;;;;1.75;0.20;;;24.20;44.50;;;;;;5031665;28;20118;-78
2022/07/16 11:14:56;;;;;;;1.23;0.20;;;24.00;44.50;;;;;;5057246;28;20419;-78
2022/07/16 11:17:27;;;;;;;0.43;0.15;;;23.80;44.40;;;;;;5054436;28;20375;-79
2022/07/16 11:19:58;;;;;;;1.77;0.17;;;23.80;44.10;;;;;;5047921;28;20053;-79
2022/07/16 11:22:28;;;;;;;2.83;0.20;;;23.70;44.50;;;;;;5053590;28;20576;-80
2022/07/16 11:25:02;;;;;;;0.52;0.10;;;23.40;44.80;;;;;;5050490;28;20080;-79
2022/07/16 11:27:36;;;;;;;0.85;0.13;;;23.40;45.00;;;;;;5044841;28;20067;-80
2022/07/16 11:30:06;;;;;;;1.00;0.47;;;23.60;44.80;;;;;;5037967;28;20111;-79
2022/07/16 11:32:47;;;;;;;0.38;0.10;;;23.90;44.70;;;;;;5054207;28;20091;-78
2022/07/16 11:35:18;;;;;;;1.38;0.20;;;24.20;44.10;;;;;;5056863;28;20036;-83
2022/07/16 11:37:57;;;;;;;2.42;0.28;;;24.00;44.20;;;;;;5036856;28;20090;-83
2022/07/16 11:40:39;;;;;;;1.67;0.30;;;23.80;44.30;;;;;;5048672;28;20041;-83
2022/07/16 11:43:06;;;;;;;1.45;0.20;;;23.50;45.00;;;;;;5061738;28;20060;-83
2022/07/16 11:45:44;;;;;;;0.70;0.10;;;23.50;44.80;;;;;;5057588;28;20049;-82
2022/07/16 11:48:16;;;;;;;2.13;0.22;;;23.60;44.30;;;;;;5056955;28;20044;-82
2022/07/16 11:50:45;;;;;;;2.72;0.20;;;23.70;43.80;;;;;;5030113;28;20052;-82
2022/07/16 11:53:15;;;;;;;1.08;0.20;;;23.90;43.30;;;;;;5051048;28;20048;-82
2022/07/16 11:55:43;;;;;;;1.70;0.10;;;24.10;42.90;;;;;;5045491;28;20044;-83
2022/07/16 11:58:11;;;;;;;1.95;0.10;;;24.30;42.70;;;;;;5057224;28;20045;-82
2022/07/16 12:00:46;;;;;;;1.92;0.10;;;24.30;42.90;;;;;;5042695;28;20040;-83
2022/07/16 12:03:16;;;;;;;1.52;0.10;;;24.60;42.90;;;;;;5082333;28;20415;-83
2022/07/16 12:05:44;;;;;;;1.60;0.10;;;25.00;42.50;;;;;;5056120;28;20032;-82
2022/07/16 12:08:11;;;;;;;1.48;0.17;;;25.40;41.90;;;;;;5066933;28;20406;-82
2022/07/16 12:11:02;;;;;;;2.10;0.22;;;25.60;41.20;;;;;;5056401;28;20090;-83
2022/07/16 12:13:29;;;;;;;0.52;0.08;;;26.00;40.90;;;;;;5038704;28;20063;-83
2022/07/16 12:16:02;;;;;;;0.80;0.20;;;25.80;41.10;;;;;;5036754;28;20109;-83
2022/07/16 12:18:29;;;;;;;0.55;0.10;;;25.30;41.70;;;;;;5043854;28;20078;-82
2022/07/16 12:21:37;;;;;;;1.48;0.17;;;25.40;42.10;;;;;;5056003;28;20098;-83
2022/07/16 12:24:06;;;;;;;1.85;0.20;;;25.80;41.40;;;;;;4953952;29;20047;-83
2022/07/16 12:26:39;;;;;;;1.10;0.10;;;26.20;41.40;;;;;;5019343;28;20131;-83
2022/07/16 12:29:09;;;;;;;0.77;0.10;;;26.90;40.80;;;;;;5039583;28;20516;-83
2022/07/16 12:31:38;;;;;;;0.93;0.20;;;27.50;40.30;;;;;;5055764;28;20044;-83
2022/07/16 12:34:07;;;;;;;1.65;0.20;;;27.70;39.40;;;;;;5035829;28;20485;-83
2022/07/16 12:36:38;;;;;;;0.68;0.13;;;27.10;39.70;;;;;;5045076;28;20036;-83
2022/07/16 12:39:07;;;;;;;0.60;0.10;;;27.30;40.10;;;;;;5055821;28;20123;-83
2022/07/16 12:41:42;;;;;;;0.32;0.03;;;27.80;39.90;;;;;;5039819;28;20109;-83
2022/07/16 12:44:19;;;;;;;1.88;0.20;;;28.00;38.90;;;;;;5055930;28;20051;-83
2022/07/16 12:46:51;;;;;;;1.63;0.20;;;27.30;38.80;;;;;;5035847;28;20040;-83
2022/07/16 12:49:27;;;;;;;1.58;0.40;;;26.50;39.20;;;;;;5052669;28;20463;-82
2022/07/16 12:51:59;;;;;;;0.63;0.10;;;26.40;39.30;;;;;;5058119;28;20105;-83
2022/07/16 12:58:47;;;;;;;1.10;0.10;;;26.20;39.70;;;;;;5051599;28;20048;-83
2022/07/16 13:00:00;;;;;;;1.25;0.10;;;27.80;39.10;;;;;;5019111;28;20049;-83
2022/07/16 13:02:27;;;;;;;0.43;0.10;;;28.60;38.40;;;;;;5029249;28;20619;-83
2022/07/16 13:04:55;;;;;;;0.70;0.20;;;29.30;37.90;;;;;;5002873;28;20059;-83
2022/07/16 13:07:22;;;;;;;0.63;0.10;;;29.70;37.50;;;;;;5038949;28;20074;-82
2022/07/16 13:09:53;;;;;;;0.93;0.20;;;30.00;37.30;;;;;;5056280;28;20048;-82
2022/07/16 13:12:20;;;;;;;0.30;0.00;;;30.30;37.20;;;;;;5035742;28;20396;-83